createdAt,value
2019-02-10T00:00:51.545Z,99964.91
2019-02-10T00:03:22.100Z,99955.93
2019-02-10T00:05:52.628Z,99954.23
2019-02-10T00:08:23.179Z,99950.72
2019-02-10T00:10:53.706Z,99944.02
2019-02-10T00:13:38.351Z,99947.91
2019-02-10T00:16:18.209Z,99943.72
2019-02-10T00:18:48.900Z,99946.27
2019-02-10T00:21:19.375Z,99940.32
2019-02-10T00:23:49.934Z,99940.45
2019-02-10T00:26:20.443Z,99942.58
2019-02-10T00:28:50.949Z,99937.52
2019-02-10T00:31:21.531Z,99935.45
2019-02-10T00:33:52.070Z,99942.32
2019-02-10T00:36:22.590Z,99933.88
2019-02-10T00:38:53.179Z,99927.52
2019-02-10T00:41:23.757Z,99924.72
2019-02-10T00:43:54.411Z,99927.91
2019-02-10T00:46:25.002Z,99931.63
2019-02-10T00:48:55.532Z,99932.43
2019-02-10T00:51:26.115Z,99930.22
2019-02-10T00:53:56.602Z,99925.45
2019-02-10T00:56:27.144Z,99922.05
2019-02-10T00:58:57.673Z,99934.65
2019-02-10T01:01:28.220Z,99925.02
2019-02-10T01:03:58.815Z,99927.67
2019-02-10T01:06:29.529Z,99919.48
2019-02-10T01:09:00.033Z,99922.64
2019-02-10T01:11:30.519Z,99920.36
2019-02-10T01:14:01.192Z,99916.73
2019-02-10T01:16:31.667Z,99916.30
2019-02-10T01:19:19.420Z,99913.02
2019-02-10T01:21:49.919Z,99909.17
2019-02-10T01:24:20.501Z,99910.70
2019-02-10T01:26:50.991Z,99906.11
2019-02-10T01:29:21.912Z,99902.55
2019-02-10T01:31:52.694Z,99901.52
2019-02-10T01:34:23.253Z,99891.05
2019-02-10T01:36:54.344Z,99893.82
2019-02-10T01:39:25.055Z,99886.23
2019-02-10T01:41:56.144Z,99880.63
2019-02-10T01:44:26.594Z,99880.66
2019-02-10T01:46:57.153Z,99867.75
2019-02-10T01:49:27.685Z,99867.88
2019-02-10T01:51:58.189Z,99868.19
2019-02-10T01:54:28.782Z,99873.44
2019-02-10T01:56:59.297Z,99861.35
2019-02-10T01:59:29.830Z,99852.45
2019-02-10T02:02:00.464Z,99854.01
2019-02-10T02:04:31.021Z,99851.38
2019-02-10T02:07:01.566Z,99854.55
2019-02-10T02:09:31.988Z,99850.02
2019-02-10T02:12:02.527Z,99846.77
2019-02-10T02:14:32.966Z,99845.89
2019-02-10T02:17:03.526Z,99840.73
2019-02-10T02:19:34.054Z,99838.80
2019-02-10T02:22:04.609Z,99840.02
2019-02-10T02:24:35.132Z,99834.17
2019-02-10T02:27:05.630Z,99834.77
2019-02-10T02:29:36.112Z,99822.48
2019-02-10T02:32:06.700Z,99816.48
2019-02-10T02:34:37.189Z,99817.01
2019-02-10T02:37:08.393Z,99807.92
2019-02-10T02:39:39.025Z,99811.40
2019-02-10T02:42:09.544Z,99810.64
2019-02-10T02:44:40.064Z,99804.77
2019-02-10T02:47:10.625Z,99799.43
2019-02-10T02:49:41.110Z,99798.91
2019-02-10T02:52:11.603Z,99795.72
2019-02-10T02:54:42.141Z,99792.00
2019-02-10T02:57:12.697Z,99783.57
2019-02-10T02:59:43.283Z,99786.50
2019-02-10T03:02:13.822Z,99780.84
2019-02-10T03:04:44.311Z,99778.28
2019-02-10T03:07:17.998Z,99768.56
2019-02-10T03:09:47.114Z,99775.25
2019-02-10T03:12:17.609Z,99758.74
2019-02-10T03:14:48.104Z,99763.91
2019-02-10T03:17:18.652Z,99758.31
2019-02-10T03:19:49.178Z,99754.21
2019-02-10T03:22:19.744Z,99757.64
2019-02-10T03:24:50.358Z,99753.23
2019-02-10T03:27:20.942Z,99757.34
2019-02-10T03:29:51.474Z,99744.94
2019-02-10T03:32:21.989Z,99739.77
2019-02-10T03:34:52.474Z,99735.34
2019-02-10T03:37:27.287Z,99737.53
2019-02-10T03:39:55.256Z,99726.82
2019-02-10T03:42:25.776Z,99728.05
2019-02-10T03:44:56.304Z,99723.14
2019-02-10T03:47:26.811Z,99711.67
2019-02-10T03:49:57.404Z,99712.47
2019-02-10T03:52:27.864Z,99707.56
2019-02-10T03:54:58.378Z,99707.30
2019-02-10T03:57:28.941Z,99699.52
2019-02-10T03:59:59.448Z,99700.92
2019-02-10T04:02:29.977Z,99694.31
2019-02-10T04:05:00.579Z,99696.64
2019-02-10T04:07:36.155Z,99695.12
2019-02-10T04:10:03.294Z,99692.70
2019-02-10T04:12:33.768Z,99683.39
2019-02-10T04:15:04.535Z,99678.06
2019-02-10T04:17:35.010Z,99671.88
2019-02-10T04:20:05.842Z,99678.56
2019-02-10T04:22:36.377Z,99662.98
2019-02-10T04:25:06.952Z,99658.91
2019-02-10T04:27:37.495Z,99656.96
2019-02-10T04:30:09.285Z,99653.66
2019-02-10T04:32:40.175Z,99654.67
2019-02-10T04:35:10.682Z,99650.33
2019-02-10T04:37:45.918Z,99645.50
2019-02-10T04:40:13.418Z,99639.58
2019-02-10T04:42:44.060Z,99634.31
2019-02-10T04:45:14.575Z,99630.93
2019-02-10T04:47:45.055Z,99628.37
2019-02-10T04:50:15.533Z,99616.89
2019-02-10T04:52:46.086Z,99609.42
2019-02-10T04:55:16.560Z,99599.89
2019-02-10T04:57:47.078Z,99598.58
2019-02-10T05:00:17.683Z,99599.66
2019-02-10T05:02:48.192Z,99596.35
2019-02-10T05:05:18.687Z,99585.97
2019-02-10T05:07:54.384Z,99578.77
2019-02-10T05:10:21.850Z,99573.45
2019-02-10T05:12:52.410Z,99576.61
2019-02-10T05:15:23.089Z,99562.53
2019-02-10T05:17:53.695Z,99558.92
2019-02-10T05:20:24.223Z,99560.31
2019-02-10T05:22:54.738Z,99556.03
2019-02-10T05:25:25.273Z,99554.08
2019-02-10T05:27:55.763Z,99546.91
2019-02-10T05:30:26.226Z,99542.23
2019-02-10T05:32:56.845Z,99537.58
2019-02-10T05:35:27.366Z,99534.55
2019-02-10T05:38:03.924Z,99528.91
2019-02-10T05:40:30.145Z,99521.34
2019-02-10T05:43:00.648Z,99515.39
2019-02-10T05:45:31.194Z,99509.19
2019-02-10T05:48:01.714Z,99504.60
2019-02-10T05:50:32.312Z,99492.39
2019-02-10T05:53:02.793Z,99498.23
2019-02-10T05:55:33.367Z,99489.44
2019-02-10T05:58:03.867Z,99481.44
2019-02-10T06:00:34.434Z,99480.77
2019-02-10T06:03:04.961Z,99469.02
2019-02-10T06:05:35.650Z,99472.23
2019-02-10T06:08:12.893Z,99463.55
2019-02-10T06:10:38.460Z,99460.67
2019-02-10T06:13:08.981Z,99458.05
2019-02-10T06:15:39.593Z,99447.12
2019-02-10T06:18:10.118Z,99439.70
2019-02-10T06:20:40.699Z,99443.45
2019-02-10T06:23:11.242Z,99442.78
2019-02-10T06:25:42.429Z,99439.98
2019-02-10T06:28:13.008Z,99431.77
2019-02-10T06:30:43.665Z,99429.06
2019-02-10T06:33:14.252Z,99416.69
2019-02-10T06:35:44.735Z,99411.44
2019-02-10T06:38:22.156Z,99401.43
2019-02-10T06:40:47.616Z,99401.43
2019-02-10T06:43:18.216Z,99393.97
2019-02-10T06:45:48.714Z,99388.66
2019-02-10T06:48:19.161Z,99390.31
2019-02-10T06:50:49.812Z,99388.66
2019-02-10T06:53:20.318Z,99386.64
2019-02-10T06:55:50.724Z,99388.02
2019-02-10T06:58:21.059Z,99385.31
2019-02-10T07:01:09.330Z,99384.22
2019-02-10T07:04:02.525Z,99377.52
2019-02-10T07:06:33.087Z,99365.89
2019-02-10T07:09:04.421Z,99362.09
2019-02-10T07:11:34.887Z,99354.41
2019-02-10T07:14:15.649Z,99351.59
2019-02-10T07:17:22.309Z,99353.16
2019-02-10T07:20:55.392Z,99341.29
2019-02-10T07:23:58.666Z,99336.45
2019-02-10T07:27:05.864Z,99326.80
2019-02-10T07:30:19.915Z,99324.11
2019-02-10T07:32:52.266Z,99332.13
2019-02-10T07:36:36.649Z,99318.28
2019-02-10T07:40:02.198Z,99311.22
2019-02-10T07:43:42.574Z,99297.89
2019-02-10T07:47:02.614Z,99288.70
2019-02-10T07:50:14.281Z,99283.63
2019-02-10T07:53:26.874Z,99273.75
2019-02-10T07:57:03.689Z,99268.75
2019-02-10T08:00:38.490Z,99259.45
2019-02-10T08:04:17.187Z,99252.00
2019-02-10T08:07:53.097Z,99244.50
2019-02-10T08:11:47.603Z,99239.20
2019-02-10T08:15:01.675Z,99221.70
2019-02-10T08:18:18.671Z,99206.11
2019-02-10T08:21:21.931Z,99205.46
2019-02-10T08:24:23.578Z,99196.81
2019-02-10T08:27:29.656Z,99187.97
2019-02-10T08:30:49.394Z,99178.84
2019-02-10T08:34:17.955Z,99165.66
2019-02-10T08:37:14.706Z,99163.03
2019-02-10T08:40:30.807Z,99150.06
2019-02-10T08:43:58.316Z,99139.24
2019-02-10T08:46:58.554Z,99131.19
2019-02-10T08:50:32.984Z,99129.65
2019-02-10T08:53:09.836Z,99116.01
2019-02-10T08:55:40.392Z,99101.06
2019-02-10T08:58:10.906Z,99094.56
2019-02-10T09:00:41.370Z,99086.95
2019-02-10T09:03:19.241Z,99075.48
2019-02-10T09:05:44.020Z,99067.23
2019-02-10T09:08:14.499Z,99053.86
2019-02-10T09:10:45.001Z,99046.73
2019-02-10T09:13:15.581Z,99040.04
2019-02-10T09:15:46.117Z,99028.20
2019-02-10T09:18:16.599Z,99018.69
2019-02-10T09:20:47.146Z,99009.23
2019-02-10T09:23:17.691Z,98999.31
2019-02-10T09:25:48.208Z,98991.08
2019-02-10T09:28:18.694Z,98983.11
2019-02-10T09:30:49.226Z,98982.73
2019-02-10T09:33:19.699Z,98987.70
2019-02-10T09:35:50.201Z,98972.17
2019-02-10T09:38:20.709Z,98953.22
2019-02-10T09:40:51.145Z,98946.42
2019-02-10T09:43:21.607Z,98929.63
2019-02-10T09:45:52.178Z,98921.11
2019-02-10T09:48:22.671Z,98909.84
2019-02-10T09:50:53.154Z,98898.94
2019-02-10T09:53:23.779Z,98885.42
2019-02-10T09:55:54.245Z,98871.62
2019-02-10T09:58:24.756Z,98857.30
2019-02-10T10:00:55.260Z,98845.75
2019-02-10T10:03:25.826Z,98842.14
2019-02-10T10:05:56.345Z,98827.12
2019-02-10T10:08:26.929Z,98825.11
2019-02-10T10:10:57.484Z,98818.38
2019-02-10T10:13:27.934Z,98815.61
2019-02-10T10:15:58.449Z,98808.12
2019-02-10T10:18:29.004Z,98796.52
2019-02-10T10:20:59.463Z,98789.16
2019-02-10T10:23:30.800Z,98777.84
2019-02-10T10:26:01.347Z,98774.79
2019-02-10T10:28:31.848Z,98779.14
2019-02-10T10:31:02.367Z,98777.91
2019-02-10T10:33:32.887Z,98776.53
2019-02-10T10:36:03.422Z,98766.23
2019-02-10T10:38:33.919Z,98759.16
2019-02-10T10:41:04.399Z,98745.46
2019-02-10T10:43:34.914Z,98735.99
2019-02-10T10:46:05.531Z,98711.36
2019-02-10T10:48:35.998Z,98711.01
2019-02-10T10:51:06.476Z,98709.99
2019-02-10T10:53:36.990Z,98701.50
2019-02-10T10:56:07.451Z,98688.30
2019-02-10T10:58:37.928Z,98673.96
2019-02-10T11:01:08.555Z,98671.09
2019-02-10T11:03:39.082Z,98647.98
2019-02-10T11:06:09.666Z,98649.77
2019-02-10T11:08:40.250Z,98644.55
2019-02-10T11:11:10.762Z,98643.21
2019-02-10T11:13:41.243Z,98631.14
2019-02-10T11:16:11.811Z,98608.69
2019-02-10T11:18:42.290Z,98618.84
2019-02-10T11:21:13.707Z,98601.45
2019-02-10T11:23:44.370Z,98592.63
2019-02-10T11:26:14.863Z,98567.92
2019-02-10T11:28:45.373Z,98571.20
2019-02-10T11:31:15.871Z,98567.58
2019-02-10T11:33:46.454Z,98552.17
2019-02-10T11:36:16.863Z,98556.10
2019-02-10T11:38:47.391Z,98543.34
2019-02-10T11:41:17.886Z,98539.42
2019-02-10T11:43:49.594Z,98532.20
2019-02-10T11:46:20.096Z,98517.96
2019-02-10T11:48:50.612Z,98508.30
2019-02-10T11:51:21.075Z,98510.42
2019-02-10T11:54:02.824Z,98509.63
2019-02-10T11:56:33.500Z,98501.08
2019-02-10T11:59:04.811Z,98491.42
2019-02-10T12:01:35.287Z,98482.08
2019-02-10T12:04:05.830Z,98480.77
2019-02-10T12:06:36.315Z,98471.28
2019-02-10T12:09:08.010Z,98470.28
2019-02-10T12:11:38.490Z,98462.73
2019-02-10T12:14:09.019Z,98451.28
2019-02-10T12:16:39.527Z,98447.50
2019-02-10T12:19:10.286Z,98430.30
2019-02-10T12:21:40.780Z,98425.03
2019-02-10T12:24:11.369Z,98411.28
2019-02-10T12:26:42.064Z,98406.67
2019-02-10T12:29:12.630Z,98401.11
2019-02-10T12:31:43.200Z,98390.61
2019-02-10T12:34:13.655Z,98384.89
2019-02-10T12:36:44.126Z,98376.34
2019-02-10T12:39:14.706Z,98368.84
2019-02-10T12:41:45.170Z,98369.63
2019-02-10T12:44:16.021Z,98355.20
2019-02-10T12:46:46.520Z,98331.43
2019-02-10T12:49:16.954Z,98331.12
2019-02-10T12:51:47.412Z,98333.08
2019-02-10T12:54:18.089Z,98327.67
2019-02-10T12:56:48.557Z,98323.72
2019-02-10T12:59:19.048Z,98315.17
2019-02-10T13:01:49.535Z,98306.97
2019-02-10T13:04:20.264Z,98307.47
2019-02-10T13:06:50.733Z,98295.48
2019-02-10T13:09:21.260Z,98289.78
2019-02-10T13:11:58.307Z,98273.71
2019-02-10T13:14:23.826Z,98271.72
2019-02-10T13:16:54.373Z,98269.57
2019-02-10T13:19:24.785Z,98266.61
2019-02-10T13:21:55.258Z,98262.37
2019-02-10T13:24:25.775Z,98249.70
2019-02-10T13:26:56.346Z,98247.08
2019-02-10T13:29:26.887Z,98243.48
2019-02-10T13:31:57.815Z,98236.07
2019-02-10T13:34:28.318Z,98227.25
2019-02-10T13:37:06.071Z,98223.60
2019-02-10T13:39:36.928Z,98221.97
2019-02-10T13:42:07.579Z,98208.37
2019-02-10T13:44:38.200Z,98203.78
2019-02-10T13:47:08.865Z,98195.09
2019-02-10T13:49:39.453Z,98203.63
2019-02-10T13:52:10.117Z,98201.45
2019-02-10T13:54:40.670Z,98203.25
2019-02-10T13:57:11.383Z,98205.84
2019-02-10T13:59:42.048Z,98195.36
2019-02-10T14:02:12.672Z,98192.72
2019-02-10T14:04:43.254Z,98186.12
2019-02-10T14:07:13.803Z,98186.41
2019-02-10T14:09:44.336Z,98180.50
2019-02-10T14:12:14.858Z,98182.18
2019-02-10T14:14:45.425Z,98183.45
2019-02-10T14:17:16.021Z,98175.38
2019-02-10T14:19:46.853Z,98173.38
2019-02-10T14:22:17.610Z,98160.03
2019-02-10T14:24:48.362Z,98157.66
2019-02-10T14:27:18.965Z,98159.86
2019-02-10T14:29:54.074Z,98162.88
2019-02-10T14:32:25.384Z,98161.33
2019-02-10T14:34:55.933Z,98156.59
2019-02-10T14:37:26.481Z,98154.31
2019-02-10T14:39:56.952Z,98150.37
2019-02-10T14:42:27.634Z,98154.97
2019-02-10T14:44:58.212Z,98145.01
2019-02-10T14:47:28.724Z,98147.33
2019-02-10T14:49:59.417Z,98147.02
2019-02-10T14:52:30.025Z,98143.38
2019-02-10T14:55:00.526Z,98141.61
2019-02-10T14:57:31.064Z,98138.36
2019-02-10T15:00:01.677Z,98126.31
2019-02-10T15:02:32.229Z,98132.11
2019-02-10T15:05:02.808Z,98131.80
2019-02-10T15:07:33.359Z,98131.94
2019-02-10T15:10:03.912Z,98137.77
2019-02-10T15:12:34.471Z,98130.93
2019-02-10T15:15:05.538Z,98133.09
2019-02-10T15:17:36.090Z,98120.59
2019-02-10T15:20:07.555Z,98123.58
2019-02-10T15:22:38.073Z,98115.51
2019-02-10T15:25:09.617Z,98116.26
2019-02-10T15:27:40.104Z,98114.10
2019-02-10T15:30:12.455Z,98111.60
2019-02-10T15:32:42.978Z,98110.16
2019-02-10T15:35:13.470Z,98111.26
2019-02-10T15:37:44.015Z,98105.25
2019-02-10T15:40:14.502Z,98107.19
2019-02-10T15:42:44.985Z,98111.69
2019-02-10T15:45:16.256Z,98112.70
2019-02-10T15:47:46.745Z,98109.94
2019-02-10T15:50:17.274Z,98112.96
2019-02-10T15:52:47.691Z,98111.95
2019-02-10T15:55:18.296Z,98113.58
2019-02-10T15:57:48.883Z,98117.70
2019-02-10T16:00:22.706Z,98113.63
2019-02-10T16:02:53.376Z,98108.89
2019-02-10T16:05:23.974Z,98109.68
2019-02-10T16:07:54.616Z,98106.08
2019-02-10T16:10:25.242Z,98108.19
2019-02-10T16:12:55.927Z,98100.43
2019-02-10T16:15:26.559Z,98099.42
2019-02-10T16:17:57.571Z,98099.81
2019-02-10T16:20:33.258Z,98094.20
2019-02-10T16:23:04.866Z,98100.52
2019-02-10T16:25:35.539Z,98104.33
2019-02-10T16:28:06.722Z,98101.05
2019-02-10T16:30:39.110Z,98107.09
2019-02-10T16:33:09.909Z,98103.14
2019-02-10T16:35:40.777Z,98105.78
2019-02-10T16:38:11.398Z,98100.95
2019-02-10T16:40:42.111Z,98094.47
2019-02-10T16:43:12.694Z,98091.53
2019-02-10T16:45:43.498Z,98101.22
2019-02-10T16:48:14.209Z,98101.78
2019-02-10T16:50:46.548Z,98098.19
2019-02-10T16:53:18.132Z,98102.87
2019-02-10T16:55:48.751Z,98109.31
2019-02-10T16:58:19.332Z,98100.16
2019-02-10T17:00:51.750Z,98103.27
2019-02-10T17:03:22.280Z,98098.39
2019-02-10T17:05:52.862Z,98105.27
2019-02-10T17:08:23.433Z,98109.81
2019-02-10T17:10:54.259Z,98111.02
2019-02-10T17:13:24.954Z,98109.67
2019-02-10T17:15:55.729Z,98113.79
2019-02-10T17:18:26.568Z,98119.49
2019-02-10T17:20:57.138Z,98119.26
2019-02-10T17:23:27.708Z,98122.44
2019-02-10T17:25:58.653Z,98111.51
2019-02-10T17:28:30.785Z,98115.45
2019-02-10T17:31:03.116Z,98121.54
2019-02-10T17:33:34.171Z,98121.05
2019-02-10T17:36:04.767Z,98118.28
2019-02-10T17:38:35.372Z,98123.12
2019-02-10T17:41:22.530Z,98117.83
2019-02-10T17:43:47.735Z,98120.66
2019-02-10T17:46:18.331Z,98121.53
2019-02-10T17:48:48.893Z,98123.49
2019-02-10T17:51:19.472Z,98121.41
2019-02-10T17:53:50.002Z,98130.78
2019-02-10T17:56:20.632Z,98125.55
2019-02-10T17:58:51.224Z,98126.27
2019-02-10T18:01:21.810Z,98129.21
2019-02-10T18:03:52.508Z,98120.98
2019-02-10T18:06:23.184Z,98125.58
2019-02-10T18:08:53.732Z,98123.98
2019-02-10T18:11:30.907Z,98141.08
2019-02-10T18:13:56.844Z,98135.03
2019-02-10T18:16:53.659Z,98145.70
2019-02-10T18:19:41.055Z,98150.49
2019-02-10T18:22:22.130Z,98151.60
2019-02-10T18:25:11.167Z,98151.28
2019-02-10T18:28:06.801Z,98151.16
2019-02-10T18:31:02.167Z,98155.79
2019-02-10T18:33:42.192Z,98158.75
2019-02-10T18:36:30.675Z,98154.54
2019-02-10T18:39:17.081Z,98150.77
2019-02-10T18:42:06.580Z,98157.31
2019-02-10T18:44:49.092Z,98154.06
2019-02-10T18:47:25.623Z,98151.79
2019-02-10T18:50:07.976Z,98150.80
2019-02-10T18:53:00.613Z,98152.33
2019-02-10T18:55:37.760Z,98153.33
2019-02-10T18:58:54.440Z,98154.16
2019-02-10T19:01:57.198Z,98162.69
2019-02-10T19:04:50.168Z,98157.14
2019-02-10T19:07:31.616Z,98167.32
2019-02-10T19:10:12.557Z,98171.56
2019-02-10T19:13:11.540Z,98175.23
2019-02-10T19:16:00.615Z,98179.86
2019-02-10T19:18:47.479Z,98194.30
2019-02-10T19:21:23.804Z,98195.31
2019-02-10T19:24:25.856Z,98201.55
2019-02-10T19:27:18.491Z,98219.23
2019-02-10T19:30:07.925Z,98226.95
2019-02-10T19:33:03.176Z,98237.97
2019-02-10T19:36:01.992Z,98235.67
2019-02-10T19:38:42.269Z,98254.17
2019-02-10T19:41:30.357Z,98254.69
2019-02-10T19:44:31.975Z,98266.42
2019-02-10T19:47:21.456Z,98305.64
2019-02-10T19:50:05.684Z,98301.98
2019-02-10T19:53:01.289Z,98307.38
2019-02-10T19:55:45.093Z,98326.77
2019-02-10T19:58:40.737Z,98334.17
2019-02-10T20:01:29.287Z,98344.07
2019-02-10T20:04:21.457Z,98351.38
2019-02-10T20:07:04.587Z,98357.70
2019-02-10T20:09:57.143Z,98373.20
2019-02-10T20:12:55.473Z,98374.69
2019-02-10T20:15:32.184Z,98394.50
2019-02-10T20:18:30.821Z,98404.04
2019-02-10T20:21:13.469Z,98419.77
2019-02-10T20:23:53.850Z,98427.66
2019-02-10T20:26:52.538Z,98443.22
2019-02-10T20:29:50.570Z,98457.50
2019-02-10T20:32:40.139Z,98468.39
2019-02-10T20:35:26.861Z,98481.84
2019-02-10T20:38:25.832Z,98493.76
2019-02-10T20:41:17.677Z,98510.06
2019-02-10T20:43:58.266Z,98542.36
2019-02-10T20:46:35.645Z,98548.59
2019-02-10T20:49:27.855Z,98557.59
2019-02-10T20:52:20.476Z,98557.11
2019-02-10T20:55:05.055Z,98574.45
2019-02-10T20:58:07.937Z,98591.64
2019-02-10T21:00:45.232Z,98600.75
2019-02-10T21:03:33.543Z,98618.53
2019-02-10T21:06:19.489Z,98630.14
2019-02-10T21:09:08.854Z,98639.87
2019-02-10T21:11:57.447Z,98653.94
2019-02-10T21:14:50.060Z,98667.28
2019-02-10T21:17:39.574Z,98673.13
2019-02-10T21:20:27.776Z,98677.05
2019-02-10T21:23:23.813Z,98685.09
2019-02-10T21:26:03.238Z,98701.66
2019-02-10T21:28:51.622Z,98716.11
2019-02-10T21:31:39.802Z,98734.59
2019-02-10T21:34:47.744Z,98734.80
2019-02-10T21:37:26.339Z,98740.47
2019-02-10T21:40:07.265Z,98755.12
2019-02-10T21:42:50.433Z,98764.61
2019-02-10T21:45:27.662Z,98777.49
2019-02-10T21:48:26.239Z,98784.34
2019-02-10T21:50:56.841Z,98791.68
2019-02-10T21:53:46.495Z,98800.95
2019-02-10T21:56:16.983Z,98796.20
2019-02-10T21:58:47.447Z,98799.46
2019-02-10T22:01:17.972Z,98804.12
2019-02-10T22:03:48.464Z,98821.75
2019-02-10T22:06:18.935Z,98824.97
2019-02-10T22:08:49.441Z,98838.88
2019-02-10T22:11:19.867Z,98841.82
2019-02-10T22:13:50.377Z,98853.22
2019-02-10T22:16:20.889Z,98850.89
2019-02-10T22:18:51.490Z,98860.55
2019-02-10T22:21:22.042Z,98867.74
2019-02-10T22:23:52.546Z,98869.24
2019-02-10T22:26:23.037Z,98881.06
2019-02-10T22:28:53.554Z,98881.84
2019-02-10T22:31:24.013Z,98899.84
2019-02-10T22:33:54.569Z,98898.70
2019-02-10T22:36:25.069Z,98908.25
2019-02-10T22:38:55.543Z,98911.58
2019-02-10T22:41:25.996Z,98924.83
2019-02-10T22:43:56.555Z,98934.98
2019-02-10T22:46:27.048Z,98941.87
2019-02-10T22:48:57.545Z,98949.72
2019-02-10T22:51:28.079Z,98955.84
2019-02-10T22:53:58.632Z,98960.02
2019-02-10T22:56:29.146Z,98967.73
2019-02-10T22:58:59.588Z,98979.53
2019-02-10T23:01:30.697Z,98987.83
2019-02-10T23:04:01.176Z,99002.63
2019-02-10T23:06:31.682Z,99009.47
2019-02-10T23:09:03.021Z,99008.03
2019-02-10T23:11:33.517Z,99021.88
2019-02-10T23:14:04.089Z,99033.84
2019-02-10T23:16:34.695Z,99043.22
2019-02-10T23:19:05.192Z,99046.52
2019-02-10T23:21:35.784Z,99055.06
2019-02-10T23:24:07.625Z,99068.40
2019-02-10T23:26:38.106Z,99072.31
2019-02-10T23:29:08.604Z,99083.45
2019-02-10T23:31:39.116Z,99083.67
2019-02-10T23:34:09.580Z,99105.42
2019-02-10T23:36:40.088Z,99111.38
2019-02-10T23:39:10.584Z,99124.02
2019-02-10T23:41:41.057Z,99136.08
2019-02-10T23:44:11.662Z,99136.88
2019-02-10T23:46:42.109Z,99144.09
2019-02-10T23:49:12.629Z,99153.02
2019-02-10T23:51:43.155Z,99157.07
2019-02-10T23:54:13.633Z,99166.20
2019-02-10T23:56:47.293Z,99167.01
2019-02-10T23:59:16.328Z,99183.40
